Time,TemperatureF,DewpointF,PressureIn,WindDirection,WindDirectionDegrees,WindSpeedMPH,WindSpeedGustMPH,Humidity,HourlyPrecipIn,Conditions,Clouds,dailyrainin,SoftwareType,DateUTC
2013-02-02 00:17:00,43.3,42.8,30.34,ENE,67,5.3,-999.0,98,-99.99,,,0.00,Acu-Link.com,2013-02-02 08:17:00,
2013-02-02 00:33:00,43.5,43.0,30.34,SE,135,1.7,-999.0,98,-99.99,,,0.00,Acu-Link.com,2013-02-02 08:33:00,
2013-02-02 00:48:00,43.3,42.8,30.34,East,90,4.2,-999.0,98,-99.99,,,0.00,Acu-Link.com,2013-02-02 08:48:00,
2013-02-02 01:16:00,43.5,43.0,30.35,ENE,67,0.0,-999.0,98,-99.99,,,0.00,Acu-Link.com,2013-02-02 09:16:00,
2013-02-02 01:31:00,43.3,42.8,30.35,ESE,112,2.2,-999.0,98,-99.99,,,0.00,Acu-Link.com,2013-02-02 09:31:00,
2013-02-02 01:47:00,43.5,43.0,30.35,SSW,202,2.7,-999.0,98,-99.99,,,0.00,Acu-Link.com,2013-02-02 09:47:00,
2013-02-02 02:02:00,43.3,42.8,30.34,East,90,5.3,-999.0,98,-99.99,,,0.00,Acu-Link.com,2013-02-02 10:02:00,
2013-02-02 02:17:00,44.2,43.7,30.36,East,90,2.2,-999.0,98,-99.99,,,0.00,Acu-Link.com,2013-02-02 10:17:00,
2013-02-02 02:32:00,44.1,43.6,30.35,SSW,202,3.7,-999.0,98,-99.99,,,0.00,Acu-Link.com,2013-02-02 10:32:00,
2013-02-02 02:47:00,44.4,43.9,30.35,NE,45,1.7,-999.0,98,-99.99,,,0.00,Acu-Link.com,2013-02-02 10:47:00,
2013-02-02 03:02:00,44.2,43.7,30.34,South,180,4.2,-999.0,98,-99.99,,,0.00,Acu-Link.com,2013-02-02 11:02:00,
2013-02-02 03:18:00,43.9,43.4,30.34,ESE,112,0.0,-999.0,98,-99.99,,,0.00,Acu-Link.com,2013-02-02 11:18:00,
2013-02-02 03:33:00,43.7,43.2,30.33,SSE,157,2.7,-999.0,98,-99.99,,,0.00,Acu-Link.com,2013-02-02 11:33:00,
2013-02-02 03:48:00,43.5,43.0,30.32,South,180,1.7,-999.0,98,-99.99,,,0.00,Acu-Link.com,2013-02-02 11:48:00,
2013-02-02 04:04:00,43.3,42.8,30.33,SSW,202,3.7,-999.0,98,-99.99,,,0.00,Acu-Link.com,2013-02-02 12:04:00,
2013-02-02 04:19:00,43.3,42.8,30.32,East,90,1.1,-999.0,98,-99.99,,,0.00,Acu-Link.com,2013-02-02 12:19:00,
2013-02-02 04:34:00,42.8,42.3,30.31,ESE,112,1.1,-999.0,98,-99.99,,,0.00,Acu-Link.com,2013-02-02 12:34:00,
2013-02-02 04:50:00,43.0,42.5,30.31,NNE,22,1.1,-999.0,98,-99.99,,,0.00,Acu-Link.com,2013-02-02 12:50:00,
2013-02-02 05:05:00,43.0,42.5,30.31,ESE,112,2.2,-999.0,98,-99.99,,,0.00,Acu-Link.com,2013-02-02 13:05:00,
2013-02-02 05:20:00,43.2,42.7,30.31,East,90,1.7,-999.0,98,-99.99,,,0.00,Acu-Link.com,2013-02-02 13:20:00,
2013-02-02 05:36:00,43.0,42.5,30.30,East,90,2.2,-999.0,98,-99.99,,,0.00,Acu-Link.com,2013-02-02 13:36:00,
2013-02-02 05:51:00,43.5,43.0,30.29,ESE,112,1.1,-999.0,98,-99.99,,,0.00,Acu-Link.com,2013-02-02 13:51:00,
2013-02-02 06:07:00,43.9,43.4,30.29,ESE,112,5.8,-999.0,98,-99.99,,,0.00,Acu-Link.com,2013-02-02 14:07:00,
2013-02-02 06:22:00,43.9,43.4,30.29,East,90,4.2,-999.0,98,-99.99,,,0.00,Acu-Link.com,2013-02-02 14:22:00,
2013-02-02 06:37:00,44.4,43.9,30.29,East,90,2.2,-999.0,98,-99.99,,,0.00,Acu-Link.com,2013-02-02 14:37:00,
2013-02-02 06:53:00,45.5,45.0,30.28,ESE,112,4.7,-999.0,98,-99.99,,,0.00,Acu-Link.com,2013-02-02 14:53:00,
2013-02-02 07:08:00,45.5,45.0,30.29,East,90,4.7,-999.0,98,-99.99,,,0.00,Acu-Link.com,2013-02-02 15:08:00,
2013-02-02 07:23:00,45.3,44.8,30.29,East,90,9.4,-999.0,98,-99.99,,,0.00,Acu-Link.com,2013-02-02 15:23:00,
2013-02-02 07:38:00,45.5,45.0,30.28,ENE,67,8.9,-999.0,98,-99.99,,,0.00,Acu-Link.com,2013-02-02 15:38:00,
2013-02-02 07:54:00,45.1,44.6,30.29,ENE,67,7.3,-999.0,98,-99.99,,,0.00,Acu-Link.com,2013-02-02 15:54:00,
2013-02-02 08:09:00,45.1,44.6,30.29,ESE,112,7.8,-999.0,98,-99.99,,,0.00,Acu-Link.com,2013-02-02 16:09:00,
2013-02-02 08:24:00,45.0,44.5,30.30,ESE,112,6.8,-999.0,98,-99.99,,,0.00,Acu-Link.com,2013-02-02 16:24:00,
2013-02-02 08:40:00,45.0,44.5,30.29,East,90,6.8,-999.0,98,-99.99,,,0.00,Acu-Link.com,2013-02-02 16:40:00,
2013-02-02 08:55:00,44.6,44.1,30.29,ENE,67,8.9,-999.0,98,-99.99,,,0.00,Acu-Link.com,2013-02-02 16:55:00,
2013-02-02 09:10:00,44.2,43.7,30.29,East,90,5.8,-999.0,98,-99.99,,,0.00,Acu-Link.com,2013-02-02 17:10:00,
2013-02-02 09:25:00,44.4,43.9,30.29,East,90,5.8,-999.0,98,-99.99,,,0.00,Acu-Link.com,2013-02-02 17:25:00,
2013-02-02 09:41:00,44.8,44.3,30.29,ESE,112,7.3,-999.0,98,-99.99,,,0.00,Acu-Link.com,2013-02-02 17:41:00,
2013-02-02 09:56:00,44.6,44.1,30.29,ESE,112,7.3,-999.0,98,-99.99,,,0.00,Acu-Link.com,2013-02-02 17:56:00,
2013-02-02 10:12:00,44.8,44.3,30.29,East,90,5.3,-999.0,98,-99.99,,,0.00,Acu-Link.com,2013-02-02 18:12:00,
2013-02-02 10:27:00,45.0,44.5,30.29,East,90,4.7,-999.0,98,-99.99,,,0.00,Acu-Link.com,2013-02-02 18:27:00,
2013-02-02 10:42:00,45.1,44.6,30.28,ESE,112,4.7,-999.0,98,-99.99,,,0.00,Acu-Link.com,2013-02-02 18:42:00,
2013-02-02 10:57:00,45.1,44.6,30.27,East,90,2.7,-999.0,98,-99.99,,,0.00,Acu-Link.com,2013-02-02 18:57:00,
2013-02-02 11:13:00,45.3,44.8,30.28,East,90,4.2,-999.0,98,-99.99,,,0.00,Acu-Link.com,2013-02-02 19:13:00,
2013-02-02 11:28:00,45.3,44.8,30.27,East,90,4.2,-999.0,98,-99.99,,,0.00,Acu-Link.com,2013-02-02 19:28:00,
2013-02-02 11:43:00,45.7,45.2,30.27,East,90,3.7,-999.0,98,-99.99,,,0.00,Acu-Link.com,2013-02-02 19:43:00,
2013-02-02 11:59:00,45.7,45.2,30.26,East,90,3.2,-999.0,98,-99.99,,,0.00,Acu-Link.com,2013-02-02 19:59:00,
2013-02-02 12:14:00,45.9,45.4,30.27,East,90,6.8,-999.0,98,-99.99,,,0.00,Acu-Link.com,2013-02-02 20:14:00,
2013-02-02 12:29:00,45.7,45.2,30.25,East,90,4.2,-999.0,98,-99.99,,,0.00,Acu-Link.com,2013-02-02 20:29:00,
2013-02-02 12:45:00,45.9,45.4,30.26,ESE,112,3.2,-999.0,98,-99.99,,,0.00,Acu-Link.com,2013-02-02 20:45:00,
2013-02-02 13:00:00,46.0,45.5,30.25,East,90,4.7,-999.0,98,-99.99,,,0.00,Acu-Link.com,2013-02-02 21:00:00,
2013-02-02 13:15:00,45.9,45.4,30.25,ESE,112,3.2,-999.0,98,-99.99,,,0.00,Acu-Link.com,2013-02-02 21:15:00,
2013-02-02 13:30:00,46.2,45.7,30.24,East,90,3.7,-999.0,98,-99.99,,,0.00,Acu-Link.com,2013-02-02 21:30:00,
2013-02-02 13:46:00,45.9,45.4,30.25,West,270,4.2,-999.0,98,-99.99,,,0.00,Acu-Link.com,2013-02-02 21:46:00,
2013-02-02 14:01:00,45.9,45.4,30.23,ENE,67,0.0,-999.0,98,-99.99,,,0.00,Acu-Link.com,2013-02-02 22:01:00,
2013-02-02 14:17:00,45.3,44.8,30.24,West,270,3.2,-999.0,98,-99.99,,,0.00,Acu-Link.com,2013-02-02 22:17:00,
2013-02-02 14:32:00,45.3,44.8,30.22,West,270,2.7,-999.0,98,-99.99,,,0.00,Acu-Link.com,2013-02-02 22:32:00,
2013-02-02 14:47:00,45.3,44.8,30.22,WNW,292,2.2,-999.0,98,-99.99,,,0.00,Acu-Link.com,2013-02-02 22:47:00,
2013-02-02 15:03:00,45.5,45.0,30.22,West,270,2.2,-999.0,98,-99.99,,,0.00,Acu-Link.com,2013-02-02 23:03:00,
2013-02-02 15:18:00,45.5,45.0,30.22,ENE,67,2.2,-999.0,98,-99.99,,,0.00,Acu-Link.com,2013-02-02 23:18:00,
2013-02-02 15:33:00,46.0,45.5,30.23,West,270,2.7,-999.0,98,-99.99,,,0.00,Acu-Link.com,2013-02-02 23:33:00,
2013-02-02 15:48:00,45.9,45.4,30.21,West,270,4.2,-999.0,98,-99.99,,,0.00,Acu-Link.com,2013-02-02 23:48:00,
2013-02-02 16:04:00,45.5,45.0,30.21,West,270,5.3,-999.0,98,-99.99,,,0.00,Acu-Link.com,2013-02-03 00:04:00,
2013-02-02 16:19:00,45.7,45.2,30.23,West,270,3.7,-999.0,98,-99.99,,,0.00,Acu-Link.com,2013-02-03 00:19:00,
2013-02-02 16:34:00,45.5,45.0,30.21,West,270,3.2,-999.0,98,-99.99,,,0.00,Acu-Link.com,2013-02-03 00:34:00,
2013-02-02 16:50:00,45.5,45.0,30.22,WNW,292,0.0,-999.0,98,-99.99,,,0.00,Acu-Link.com,2013-02-03 00:50:00,
2013-02-02 17:05:00,45.1,44.6,30.21,WSW,247,4.2,-999.0,98,-99.99,,,0.00,Acu-Link.com,2013-02-03 01:05:00,
2013-02-02 17:20:00,44.8,44.3,30.21,West,270,3.2,-999.0,98,-99.99,,,0.00,Acu-Link.com,2013-02-03 01:20:00,
2013-02-02 17:36:00,44.8,44.3,30.21,ESE,112,0.0,-999.0,98,-99.99,,,0.00,Acu-Link.com,2013-02-03 01:36:00,
2013-02-02 17:51:00,44.4,43.9,30.21,West,270,3.7,-999.0,98,-99.99,,,0.00,Acu-Link.com,2013-02-03 01:51:00,
2013-02-02 18:06:00,44.2,43.7,30.21,WSW,247,2.2,-999.0,98,-99.99,,,0.00,Acu-Link.com,2013-02-03 02:06:00,
2013-02-02 18:21:00,44.1,43.6,30.21,West,270,1.7,-999.0,98,-99.99,,,0.00,Acu-Link.com,2013-02-03 02:21:00,
2013-02-02 18:37:00,43.7,43.2,30.21,NE,45,0.0,-999.0,98,-99.99,,,0.00,Acu-Link.com,2013-02-03 02:37:00,
2013-02-02 18:52:00,43.7,43.2,30.21,West,270,3.2,-999.0,98,-99.99,,,0.00,Acu-Link.com,2013-02-03 02:52:00,
2013-02-02 19:07:00,43.7,43.2,30.21,West,270,2.2,-999.0,98,-99.99,,,0.00,Acu-Link.com,2013-02-03 03:07:00,
2013-02-02 19:23:00,43.7,43.2,30.22,WSW,247,0.0,-999.0,98,-99.99,,,0.00,Acu-Link.com,2013-02-03 03:23:00,
2013-02-02 19:38:00,43.3,42.8,30.21,West,270,3.2,-999.0,98,-99.99,,,0.00,Acu-Link.com,2013-02-03 03:38:00,
2013-02-02 19:53:00,43.2,42.7,30.24,West,270,1.7,-999.0,98,-99.99,,,0.00,Acu-Link.com,2013-02-03 03:53:00,
2013-02-02 20:09:00,43.0,42.5,30.22,West,270,3.7,-999.0,98,-99.99,,,0.00,Acu-Link.com,2013-02-03 04:09:00,
2013-02-02 20:24:00,43.0,42.5,30.23,WSW,247,1.1,-999.0,98,-99.99,,,0.00,Acu-Link.com,2013-02-03 04:24:00,
2013-02-02 20:39:00,43.0,42.5,30.23,West,270,0.0,-999.0,98,-99.99,,,0.00,Acu-Link.com,2013-02-03 04:39:00,
2013-02-02 20:55:00,43.0,42.5,30.22,WNW,292,0.0,-999.0,98,-99.99,,,0.00,Acu-Link.com,2013-02-03 04:55:00,
2013-02-02 21:10:00,42.6,42.1,30.22,ESE,112,0.0,-999.0,98,-99.99,,,0.00,Acu-Link.com,2013-02-03 05:10:00,
2013-02-02 21:26:00,42.6,42.1,30.22,West,270,0.0,-999.0,98,-99.99,,,0.00,Acu-Link.com,2013-02-03 05:26:00,
2013-02-02 21:41:00,42.6,42.1,30.22,ENE,67,0.0,-999.0,98,-99.99,,,0.00,Acu-Link.com,2013-02-03 05:41:00,
2013-02-02 21:57:00,42.4,41.9,30.21,ESE,112,2.2,-999.0,98,-99.99,,,0.00,Acu-Link.com,2013-02-03 05:57:00,
2013-02-02 22:12:00,42.1,41.6,30.22,SSE,157,0.0,-999.0,98,-99.99,,,0.00,Acu-Link.com,2013-02-03 06:12:00,
2013-02-02 22:28:00,41.9,41.4,30.23,West,270,2.2,-999.0,98,-99.99,,,0.00,Acu-Link.com,2013-02-03 06:28:00,
2013-02-02 22:43:00,41.5,41.0,30.23,East,90,2.7,-999.0,98,-99.99,,,0.00,Acu-Link.com,2013-02-03 06:43:00,
2013-02-02 22:58:00,41.5,41.0,30.23,West,270,2.2,-999.0,98,-99.99,,,0.00,Acu-Link.com,2013-02-03 06:58:00,
2013-02-02 23:13:00,41.4,40.9,30.24,East,90,2.7,-999.0,98,-99.99,,,0.00,Acu-Link.com,2013-02-03 07:13:00,
2013-02-02 23:29:00,41.5,41.0,30.25,West,270,0.0,-999.0,98,-99.99,,,0.00,Acu-Link.com,2013-02-03 07:29:00,
2013-02-02 23:44:00,41.7,41.2,30.25,East,90,0.0,-999.0,98,-99.99,,,0.00,Acu-Link.com,2013-02-03 07:44:00,
2013-02-02 23:59:00,41.7,41.2,30.24,ESE,112,2.2,-999.0,98,-99.99,,,0.00,Acu-Link.com,2013-02-03 07:59:00,